Time;durP1;ratioP1;P1;durP2;ratioP2;P2;SDS_P1;SDS_P2;PMS_P1;PMS_P2;Temp;Humidity;BMP_temperature;BMP_pressure;BME280_temperature;BME280_humidity;BME280_pressure;Samples;Min_cycle;Max_cycle;Signal;HPM_P1;HPM_P2
2022/01/02 00:00:14;;;;;;;0.60;0.40;;;;;;;0.22;78.90;99526.39;108911;1280;137761;-66
2022/01/02 00:02:43;;;;;;;0.60;0.50;;;;;;;0.19;78.11;99532.71;108991;1280;22648;-66
2022/01/02 00:05:12;;;;;;;0.50;0.50;;;;;;;0.17;78.12;99528.73;108851;1280;139816;-57
2022/01/02 00:07:43;;;;;;;1.10;0.70;;;;;;;0.15;77.66;99534.92;104802;1280;25399;-56
2022/01/02 00:10:12;;;;;;;1.00;0.60;;;;;;;0.12;77.54;99544.77;104791;1280;25726;-57
2022/01/02 00:12:43;;;;;;;0.50;0.50;;;;;;;0.10;77.68;99551.09;104513;1280;137444;-57
2022/01/02 00:15:11;;;;;;;0.60;0.60;;;;;;;0.07;77.66;99553.98;104716;1280;25330;-57
2022/01/02 00:17:39;;;;;;;1.10;0.80;;;;;;;0.06;77.74;99565.87;104559;1280;137461;-57
2022/01/02 00:20:13;;;;;;;0.50;0.50;;;;;;;0.04;77.74;99575.04;108772;1277;23678;-58
2022/01/02 00:22:42;;;;;;;1.00;0.80;;;;;;;0.03;77.47;99580.91;108868;1279;138555;-58
2022/01/02 00:25:23;;;;;;;0.70;0.60;;;;;;;0.02;78.09;99584.73;108874;1280;22550;-59
2022/01/02 00:27:51;;;;;;;0.70;0.70;;;;;;;0.03;77.76;99597.19;108765;1279;22415;-58
2022/01/02 00:30:19;;;;;;;0.70;0.60;;;;;;;0.03;78.12;99597.85;108776;1280;139048;-58
2022/01/02 00:32:47;;;;;;;2.80;0.80;;;;;;;0.02;77.98;99598.09;108759;1280;22554;-59
2022/01/02 00:35:30;;;;;;;1.10;1.00;;;;;;;0.04;77.78;99611.80;108237;1280;137649;-58
2022/01/02 00:37:58;;;;;;;1.00;0.80;;;;;;;0.04;78.17;99619.83;104631;1280;25164;-57
2022/01/02 00:40:26;;;;;;;0.90;0.80;;;;;;;0.05;78.20;99617.08;104674;1280;23015;-56
2022/01/02 00:43:02;;;;;;;7.00;1.50;;;;;;;0.04;78.46;99617.65;108822;1279;138720;-57
2022/01/02 00:45:35;;;;;;;1.10;0.80;;;;;;;0.03;78.49;99615.98;108890;1280;22660;-57
2022/01/02 00:48:08;;;;;;;0.70;0.60;;;;;;;0.05;78.73;99618.89;108634;1280;139637;-57
2022/01/02 00:50:52;;;;;;;1.00;0.70;;;;;;;0.05;78.64;99621.89;108857;1277;22648;-57
2022/01/02 00:53:22;;;;;;;1.90;0.90;;;;;;;0.05;78.68;99622.84;108845;1279;137250;-56
2022/01/02 00:55:55;;;;;;;1.20;0.90;;;;;;;0.04;79.02;99624.89;108850;1280;22482;-56
2022/01/02 00:58:29;;;;;;;1.50;0.90;;;;;;;0.03;79.34;99625.86;109009;1277;22551;-56
2022/01/02 01:00:56;;;;;;;1.80;0.80;;;;;;;0.03;79.68;99629.05;108804;1280;137735;-57
2022/01/02 01:03:30;;;;;;;1.40;1.00;;;;;;;0.02;79.75;99632.20;108776;1280;23277;-57
2022/01/02 01:06:01;;;;;;;1.90;0.90;;;;;;;0.03;79.78;99625.17;108702;1280;137723;-57
2022/01/02 01:08:31;;;;;;;1.40;0.90;;;;;;;0.04;79.64;99620.77;108589;1279;22464;-56
2022/01/02 01:10:59;;;;;;;2.10;0.90;;;;;;;0.05;79.26;99618.89;108743;1280;137510;-56
2022/01/02 01:13:27;;;;;;;2.20;1.10;;;;;;;0.04;78.53;99624.89;109101;1277;23154;-56
2022/01/02 01:15:56;;;;;;;1.80;0.90;;;;;;;0.05;78.68;99624.78;109072;1277;22547;-66
2022/01/02 01:18:24;;;;;;;1.30;0.70;;;;;;;0.06;78.25;99625.34;109018;1277;138385;-64
2022/01/02 01:20:54;;;;;;;1.10;0.80;;;;;;;0.07;78.23;99632.86;109160;1277;22477;-64
2022/01/02 01:23:22;;;;;;;1.00;0.80;;;;;;;0.08;78.60;99636.40;108860;1278;137633;-65
2022/01/02 01:25:50;;;;;;;1.60;1.00;;;;;;;0.08;78.41;99640.85;109025;1280;22551;-65
2022/01/02 01:28:18;;;;;;;2.40;0.80;;;;;;;0.07;78.40;99645.58;109104;1277;22465;-66
2022/01/02 01:30:48;;;;;;;1.60;0.80;;;;;;;0.06;78.68;99650.14;108926;1280;139594;-66
2022/01/02 01:33:17;;;;;;;2.50;1.10;;;;;;;0.06;78.42;99656.41;108990;1279;22420;-66
2022/01/02 01:35:44;;;;;;;1.20;1.00;;;;;;;0.07;78.42;99664.20;108990;1277;138772;-67
2022/01/02 01:38:13;;;;;;;2.60;1.60;;;;;;;0.08;78.63;99663.48;109053;1278;23049;-66
2022/01/02 01:40:48;;;;;;;2.60;1.40;;;;;;;0.08;78.83;99662.28;108998;1277;138041;-67
2022/01/02 01:43:16;;;;;;;4.30;2.30;;;;;;;0.08;78.55;99660.30;109045;1277;22549;-66
2022/01/02 01:45:44;;;;;;;3.80;2.00;;;;;;;0.06;78.76;99660.66;109139;1278;22510;-66
2022/01/02 01:48:12;;;;;;;2.00;1.30;;;;;;;0.06;78.02;99667.29;108970;1278;137752;-65
2022/01/02 01:50:41;;;;;;;1.50;1.20;;;;;;;0.04;77.12;99671.76;109056;1280;22916;-65
2022/01/02 01:53:13;;;;;;;2.00;1.00;;;;;;;0.04;75.45;99672.57;108487;1279;138588;-66
2022/01/02 01:55:41;;;;;;;1.10;0.90;;;;;;;0.03;73.89;99667.66;104688;1280;22570;-65
2022/01/02 01:58:10;;;;;;;2.30;1.10;;;;;;;0.03;73.87;99671.97;109007;1278;23165;-66
2022/01/02 02:00:40;;;;;;;1.00;0.80;;;;;;;0.02;73.70;99675.88;108806;1277;137544;-67
2022/01/02 02:03:13;;;;;;;1.70;0.90;;;;;;;-0.02;72.25;99680.19;108893;1278;23402;-67
2022/01/02 02:05:43;;;;;;;1.00;0.90;;;;;;;-0.03;72.32;99678.60;108954;1279;140682;-66
2022/01/02 02:08:31;;;;;;;0.60;0.60;;;;;;;-0.05;71.89;99682.20;108939;1280;22486;-66
2022/01/02 02:10:59;;;;;;;0.70;0.70;;;;;;;-0.06;71.24;99684.40;108764;1280;137943;-66
2022/01/02 02:13:28;;;;;;;0.70;0.60;;;;;;;-0.06;70.55;99690.38;108770;1280;23158;-67
2022/01/02 02:16:01;;;;;;;0.80;0.80;;;;;;;-0.10;69.36;99693.08;109092;1280;22495;-66
2022/01/02 02:18:29;;;;;;;1.20;0.80;;;;;;;-0.10;69.33;99698.85;108864;1279;138399;-66
2022/01/02 02:20:59;;;;;;;1.00;0.80;;;;;;;-0.11;68.88;99702.86;108999;1280;23224;-66
2022/01/02 02:23:29;;;;;;;1.20;0.80;;;;;;;-0.13;69.05;99712.39;108881;1279;138489;-66
2022/01/02 02:25:57;;;;;;;0.80;0.70;;;;;;;-0.15;68.89;99709.16;109023;1280;22631;-65
2022/01/02 02:28:27;;;;;;;0.60;0.60;;;;;;;-0.18;68.24;99708.30;108981;1280;22516;-64
2022/01/02 02:30:57;;;;;;;1.40;0.90;;;;;;;-0.21;68.49;99708.12;108882;1280;137781;-64
2022/01/02 02:33:25;;;;;;;1.70;0.90;;;;;;;-0.24;68.52;99710.42;109061;1277;22462;-64
2022/01/02 02:35:54;;;;;;;1.40;0.70;;;;;;;-0.28;68.02;99710.58;108965;1279;139118;-63
2022/01/02 02:38:22;;;;;;;2.00;0.80;;;;;;;-0.33;67.64;99720.57;108946;1278;22422;-66
2022/01/02 02:40:53;;;;;;;0.80;0.80;;;;;;;-0.37;67.04;99721.77;108941;1279;138850;-64
2022/01/02 02:43:28;;;;;;;1.00;0.70;;;;;;;-0.42;67.10;99721.40;109101;1278;22430;-65
2022/01/02 02:49:02;;;;;;;0.60;0.60;;;;;;;-0.50;67.10;99723.87;108776;1280;138669;-64
2022/01/02 02:51:39;;;;;;;0.60;0.60;;;;;;;-0.55;67.09;99725.89;109049;1279;23502;-66
2022/01/02 02:54:07;;;;;;;1.00;0.80;;;;;;;-0.60;67.56;99732.36;109017;1277;138255;-65
2022/01/02 02:56:55;;;;;;;0.90;0.70;;;;;;;-0.64;67.68;99733.54;109200;1278;22471;-65
2022/01/02 02:59:28;;;;;;;2.30;1.00;;;;;;;-0.68;68.30;99732.63;108957;1278;137154;-65
2022/01/02 03:01:56;;;;;;;1.40;1.10;;;;;;;-0.71;68.23;99740.45;109201;1278;22408;-65
2022/01/02 03:04:25;;;;;;;1.40;1.10;;;;;;;-0.76;68.10;99742.14;109066;1278;23512;-65
2022/01/02 03:06:54;;;;;;;3.00;1.30;;;;;;;-0.80;68.62;99743.76;108959;1277;137258;-65
2022/01/02 03:09:58;;;;;;;2.30;1.70;;;;;;;-0.83;68.86;99750.11;109045;1278;22456;-65
2022/01/02 03:12:19;;;;;;;1.10;0.80;;;;;;;-0.86;69.15;99754.73;108928;1280;137603;-66
2022/01/02 03:14:49;;;;;;;2.40;1.00;;;;;;;-0.89;69.22;99753.89;109076;1278;23189;-65
2022/01/02 03:17:17;;;;;;;1.80;1.00;;;;;;;-0.92;69.42;99756.84;109032;1277;139113;-65
2022/01/02 03:19:46;;;;;;;1.20;1.00;;;;;;;-0.93;69.40;99761.66;109093;1278;22504;-65
2022/01/02 03:22:15;;;;;;;1.60;1.00;;;;;;;-0.94;69.51;99767.09;109109;1278;22432;-65
2022/01/02 03:24:49;;;;;;;1.60;1.00;;;;;;;-0.97;68.97;99763.80;108873;1280;138043;-65
2022/01/02 03:27:18;;;;;;;1.50;0.90;;;;;;;-0.99;69.05;99768.88;108927;1280;22561;-65
2022/01/02 03:29:46;;;;;;;2.30;1.20;;;;;;;-1.02;69.03;99772.08;108917;1280;137735;-65
2022/01/02 03:32:15;;;;;;;2.40;1.00;;;;;;;-1.05;68.89;99772.64;108944;1280;22568;-65
2022/01/02 03:34:43;;;;;;;1.50;0.90;;;;;;;-1.08;68.83;99779.20;108990;1278;138232;-65
2022/01/02 03:37:11;;;;;;;1.70;0.90;;;;;;;-1.11;68.91;99786.87;109057;1280;22519;-65
2022/01/02 03:39:39;;;;;;;2.60;1.20;;;;;;;-1.15;69.43;99792.27;109050;1280;22535;-65
2022/01/02 03:42:07;;;;;;;1.50;1.30;;;;;;;-1.18;69.15;99794.45;108865;1279;139315;-65
2022/01/02 03:44:36;;;;;;;1.30;1.00;;;;;;;-1.21;69.29;99800.17;109067;1280;22459;-65
2022/01/02 03:47:06;;;;;;;1.50;1.20;;;;;;;-1.25;69.39;99804.66;108779;1280;139264;-66
2022/01/02 03:49:34;;;;;;;1.20;0.90;;;;;;;-1.28;69.22;99810.52;108913;1280;22416;-66
2022/01/02 03:52:03;;;;;;;1.40;0.80;;;;;;;-1.30;69.41;99810.85;108972;1280;22552;-66
2022/01/02 03:54:31;;;;;;;3.90;1.30;;;;;;;-1.32;69.48;99817.67;108888;1280;137878;-66
2022/01/02 03:56:59;;;;;;;1.80;1.20;;;;;;;-1.34;69.54;99828.56;109029;1279;22515;-66
2022/01/02 03:59:27;;;;;;;2.50;1.00;;;;;;;-1.35;69.44;99840.10;108730;1280;137783;-66
2022/01/02 04:01:57;;;;;;;1.40;1.10;;;;;;;-1.38;69.55;99844.36;109013;1279;22551;-66
2022/01/02 04:04:26;;;;;;;2.70;1.20;;;;;;;-1.42;69.20;99848.83;108873;1280;22248;-66
2022/01/02 04:06:55;;;;;;;2.30;1.10;;;;;;;-1.44;69.57;99853.89;108928;1279;138146;-66
2022/01/02 04:09:23;;;;;;;1.00;0.90;;;;;;;-1.45;69.79;99855.31;109035;1279;22486;-66
2022/01/02 04:11:51;;;;;;;1.60;1.20;;;;;;;-1.48;69.69;99864.14;108914;1280;138444;-65
2022/01/02 04:14:20;;;;;;;2.00;1.10;;;;;;;-1.49;69.83;99868.55;108990;1280;22542;-65
2022/01/02 04:16:48;;;;;;;1.90;1.00;;;;;;;-1.50;69.54;99872.79;108908;1280;138382;-65
2022/01/02 04:19:16;;;;;;;2.10;1.20;;;;;;;-1.51;69.71;99870.35;108973;1279;22457;-66
2022/01/02 04:21:45;;;;;;;1.60;1.30;;;;;;;-1.51;69.63;99876.83;108991;1280;22458;-65
2022/01/02 04:24:13;;;;;;;2.90;1.30;;;;;;;-1.53;69.32;99870.21;108857;1278;138542;-65
2022/01/02 04:26:42;;;;;;;3.50;1.60;;;;;;;-1.53;69.78;99873.46;108984;1279;22516;-64
2022/01/02 04:29:10;;;;;;;1.70;1.20;;;;;;;-1.54;69.68;99877.88;108916;1279;138459;-65
2022/01/02 04:31:38;;;;;;;2.30;2.10;;;;;;;-1.58;69.93;99880.39;109059;1278;22391;-66
2022/01/02 04:34:07;;;;;;;2.50;1.30;;;;;;;-1.62;69.95;99884.63;108788;1279;22387;-64
2022/01/02 04:36:35;;;;;;;2.70;1.80;;;;;;;-1.67;70.03;99888.96;108919;1280;137311;-64
2022/01/02 04:39:04;;;;;;;2.20;1.70;;;;;;;-1.72;70.37;99893.94;108858;1280;22417;-65
2022/01/02 04:41:33;;;;;;;2.60;1.60;;;;;;;-1.76;70.36;99893.36;108859;1279;138571;-65
2022/01/02 04:44:01;;;;;;;2.30;1.60;;;;;;;-1.82;70.57;99901.74;108632;1280;22461;-65
2022/01/02 04:46:30;;;;;;;2.60;1.60;;;;;;;-1.85;70.88;99907.30;108868;1280;22503;-65
2022/01/02 04:48:58;;;;;;;2.00;1.50;;;;;;;-1.88;70.93;99914.41;108840;1279;138572;-65
2022/01/02 04:51:26;;;;;;;2.10;1.30;;;;;;;-1.91;70.92;99927.20;108913;1281;22448;-65
2022/01/02 04:53:54;;;;;;;3.90;1.80;;;;;;;-1.95;70.95;99929.39;108754;1280;138195;-65
2022/01/02 04:56:24;;;;;;;4.20;1.40;;;;;;;-1.97;71.20;99939.80;106793;1280;25217;-63
2022/01/02 04:58:52;;;;;;;2.20;1.60;;;;;;;-2.01;71.26;99945.41;108850;1280;138258;-64
2022/01/02 05:01:20;;;;;;;4.40;2.00;;;;;;;-2.05;71.12;99946.53;108972;1279;22578;-64
2022/01/02 05:03:49;;;;;;;4.80;2.40;;;;;;;-2.08;71.18;99948.98;108989;1280;23208;-64
2022/01/02 05:06:17;;;;;;;4.60;1.80;;;;;;;-2.10;71.21;99951.75;108981;1277;137185;-63
2022/01/02 05:08:46;;;;;;;4.20;2.10;;;;;;;-2.14;71.29;99953.38;108969;1280;22481;-64
2022/01/02 05:11:14;;;;;;;3.10;1.90;;;;;;;-2.18;71.19;99951.18;108818;1280;138234;-64
2022/01/02 05:13:42;;;;;;;3.30;1.50;;;;;;;-2.21;70.82;99949.02;108956;1280;22564;-64
2022/01/02 05:16:11;;;;;;;4.10;2.00;;;;;;;-2.24;70.80;99954.31;109151;1277;23441;-64
2022/01/02 05:18:39;;;;;;;3.90;2.00;;;;;;;-2.27;71.04;99954.94;108934;1277;138267;-64
2022/01/02 05:21:07;;;;;;;2.50;1.60;;;;;;;-2.29;71.15;99951.12;109086;1278;22464;-64
2022/01/02 05:23:38;;;;;;;1.50;1.30;;;;;;;-2.32;71.10;99951.43;108769;1280;137636;-64
2022/01/02 05:26:06;;;;;;;1.70;1.50;;;;;;;-2.35;71.15;99953.54;109020;1280;22497;-64
2022/01/02 05:28:34;;;;;;;3.60;1.80;;;;;;;-2.38;70.94;99952.42;109072;1277;138328;-62
2022/01/02 05:31:03;;;;;;;3.90;1.30;;;;;;;-2.41;70.69;99952.64;108969;1280;23369;-65
2022/01/02 05:33:31;;;;;;;2.10;1.60;;;;;;;-2.44;70.60;99953.71;108761;1280;23309;-65
2022/01/02 05:36:00;;;;;;;1.70;1.20;;;;;;;-2.48;70.85;99952.31;108798;1280;137768;-64
2022/01/02 05:38:28;;;;;;;2.30;1.60;;;;;;;-2.52;71.18;99957.77;108999;1280;22455;-65
2022/01/02 05:40:57;;;;;;;2.70;1.50;;;;;;;-2.56;70.85;99962.35;108878;1278;138216;-64
2022/01/02 05:43:25;;;;;;;7.70;5.10;;;;;;;-2.59;71.02;99964.31;108958;1278;22541;-65
2022/01/02 05:45:53;;;;;;;3.80;2.80;;;;;;;-2.61;70.89;99971.59;109094;1278;22287;-65
2022/01/02 05:48:21;;;;;;;6.10;4.00;;;;;;;-2.63;70.99;99979.16;108761;1280;137467;-65
2022/01/02 05:50:50;;;;;;;2.30;1.90;;;;;;;-2.66;70.96;99977.47;109035;1279;23709;-65
2022/01/02 05:53:18;;;;;;;2.70;2.10;;;;;;;-2.69;70.84;99975.89;108945;1278;138434;-65
2022/01/02 05:55:46;;;;;;;3.60;2.10;;;;;;;-2.73;70.82;99986.11;109017;1280;23379;-65
2022/01/02 05:58:14;;;;;;;4.10;2.00;;;;;;;-2.78;70.59;99991.94;108989;1280;23348;-64
2022/01/02 06:00:42;;;;;;;4.60;2.00;;;;;;;-2.81;70.67;99998.98;109183;1277;138635;-65
2022/01/02 06:03:10;;;;;;;3.90;2.30;;;;;;;-2.81;70.79;100002.61;109265;1276;22463;-64
2022/01/02 06:05:39;;;;;;;3.20;1.90;;;;;;;-2.83;70.66;100005.06;109187;1277;137682;-64
2022/01/02 06:08:08;;;;;;;2.40;1.70;;;;;;;-2.86;70.69;100001.62;109284;1275;22456;-64
2022/01/02 06:10:38;;;;;;;2.30;1.50;;;;;;;-2.88;70.61;100004.64;109278;1274;139135;-64
2022/01/02 06:13:06;;;;;;;2.40;1.40;;;;;;;-2.88;70.87;100006.88;109293;1277;22515;-64
2022/01/02 06:15:34;;;;;;;1.80;1.40;;;;;;;-2.90;70.97;100010.11;109224;1277;23700;-64
2022/01/02 06:18:04;;;;;;;2.20;1.50;;;;;;;-2.92;70.79;100008.17;109167;1277;137286;-64
2022/01/02 06:20:33;;;;;;;4.30;1.70;;;;;;;-2.93;70.93;100009.16;109247;1277;23208;-64
2022/01/02 06:23:01;;;;;;;3.10;2.00;;;;;;;-2.95;70.80;100010.22;109087;1277;139231;-65
2022/01/02 06:25:29;;;;;;;3.40;2.10;;;;;;;-2.97;70.82;100012.20;109219;1277;22508;-65
2022/01/02 06:27:57;;;;;;;3.40;2.10;;;;;;;-2.96;71.12;100013.41;109255;1276;23492;-65
2022/01/02 06:30:25;;;;;;;4.70;2.10;;;;;;;-2.99;71.06;100017.08;109132;1276;139533;-65
2022/01/02 06:32:56;;;;;;;2.40;1.70;;;;;;;-2.99;71.17;100015.48;109253;1277;22470;-65
2022/01/02 06:35:26;;;;;;;2.50;1.80;;;;;;;-3.02;71.11;100018.10;109127;1277;138654;-65
2022/01/02 06:37:54;;;;;;;3.90;2.50;;;;;;;-3.04;71.13;100015.65;109234;1276;24490;-65
2022/01/02 06:40:23;;;;;;;2.80;1.50;;;;;;;-3.05;71.43;100017.37;109274;1277;22438;-65
2022/01/02 06:42:52;;;;;;;4.70;2.30;;;;;;;-3.05;71.28;100017.67;109117;1277;138929;-65
2022/01/02 06:45:20;;;;;;;4.90;2.50;;;;;;;-3.04;71.47;100015.85;109264;1277;22465;-65
2022/01/02 06:47:50;;;;;;;4.00;2.00;;;;;;;-3.02;71.48;100019.63;109159;1276;138943;-65
2022/01/02 06:50:18;;;;;;;2.70;1.90;;;;;;;-3.00;71.54;100022.84;109341;1275;23255;-65
2022/01/02 06:52:46;;;;;;;3.40;2.00;;;;;;;-2.99;71.73;100027.72;109243;1277;138863;-65
2022/01/02 06:55:14;;;;;;;2.80;1.80;;;;;;;-2.99;71.67;100028.11;109227;1276;22456;-65
2022/01/02 06:57:41;;;;;;;5.00;2.40;;;;;;;-3.00;71.70;100028.30;109273;1277;22485;-65
2022/01/02 07:00:09;;;;;;;4.20;2.40;;;;;;;-2.99;71.65;100035.21;109222;1277;139027;-65
2022/01/02 07:02:38;;;;;;;3.90;2.20;;;;;;;-3.02;71.82;100037.63;109363;1274;22465;-65
2022/01/02 07:05:08;;;;;;;3.60;1.90;;;;;;;-3.03;71.84;100040.76;109163;1277;138673;-65
2022/01/02 07:07:42;;;;;;;2.50;1.60;;;;;;;-3.03;71.72;100039.04;109300;1276;22455;-64
2022/01/02 07:10:11;;;;;;;2.80;1.50;;;;;;;-3.03;71.25;100038.63;109303;1275;23174;-64
2022/01/02 07:12:39;;;;;;;2.30;1.60;;;;;;;-3.03;71.39;100039.49;109278;1274;138088;-64
2022/01/02 07:15:07;;;;;;;1.80;1.30;;;;;;;-3.03;71.45;100034.16;109409;1275;22275;-64
2022/01/02 07:17:36;;;;;;;2.40;1.40;;;;;;;-3.02;71.16;100034.63;109246;1274;139222;-64
2022/01/02 07:20:04;;;;;;;3.60;2.30;;;;;;;-3.03;70.89;100035.23;109384;1274;22539;-65
2022/01/02 07:22:32;;;;;;;4.80;1.90;;;;;;;-3.04;70.87;100041.60;109323;1276;22406;-64
2022/01/02 07:25:00;;;;;;;3.30;2.00;;;;;;;-3.04;70.80;100047.30;109286;1274;137171;-64
2022/01/02 07:27:31;;;;;;;4.60;2.20;;;;;;;-3.05;71.19;100047.20;109431;1275;23320;-64
2022/01/02 07:29:59;;;;;;;3.80;1.80;;;;;;;-3.04;71.08;100052.06;109240;1274;139088;-65
2022/01/02 07:32:28;;;;;;;4.00;2.30;;;;;;;-3.02;71.15;100054.69;109352;1274;22498;-64
2022/01/02 07:34:56;;;;;;;2.60;1.50;;;;;;;-3.01;70.79;100054.39;109275;1275;138143;-64
2022/01/02 07:37:24;;;;;;;3.00;1.70;;;;;;;-3.00;70.25;100058.59;109378;1275;23142;-65
2022/01/02 07:39:52;;;;;;;3.30;1.70;;;;;;;-3.01;70.22;100062.35;109388;1274;22509;-65
2022/01/02 07:42:20;;;;;;;2.20;1.60;;;;;;;-2.99;70.14;100069.13;109278;1274;138951;-65
2022/01/02 07:44:56;;;;;;;2.70;1.70;;;;;;;-2.97;70.11;100067.69;109275;1276;22571;-65
2022/01/02 07:47:24;;;;;;;3.20;2.00;;;;;;;-2.94;69.62;100067.54;109197;1274;139220;-65
2022/01/02 07:49:52;;;;;;;5.00;1.90;;;;;;;-2.92;69.47;100071.39;109387;1274;22413;-65
2022/01/02 07:52:20;;;;;;;2.40;1.70;;;;;;;-2.91;69.46;100075.27;109359;1274;22550;-65
2022/01/02 07:54:48;;;;;;;2.80;1.70;;;;;;;-2.91;68.97;100072.20;109343;1274;139097;-65
2022/01/02 07:57:16;;;;;;;2.70;1.80;;;;;;;-2.91;68.40;100076.80;109487;1274;22358;-65
2022/01/02 07:59:44;;;;;;;2.60;1.80;;;;;;;-2.91;68.09;100075.56;109385;1274;137584;-65
2022/01/02 08:02:38;;;;;;;4.90;2.70;;;;;;;-2.91;67.51;100070.43;109512;1273;23095;-65
2022/01/02 08:05:10;;;;;;;11.50;3.60;;;;;;;-2.90;67.54;100072.27;109198;1276;138262;-65
2022/01/02 08:07:39;;;;;;;6.20;2.10;;;;;;;-2.87;67.43;100068.73;109372;1274;22509;-65
2022/01/02 08:10:07;;;;;;;12.40;8.00;;;;;;;-2.85;67.02;100067.08;109465;1274;22516;-65
2022/01/02 08:12:35;;;;;;;12.10;6.30;;;;;;;-2.83;66.75;100079.23;109357;1274;138643;-65
2022/01/02 08:15:10;;;;;;;6.70;3.00;;;;;;;-2.82;66.46;100077.55;109385;1274;22574;-58
2022/01/02 08:17:38;;;;;;;6.50;2.70;;;;;;;-2.81;66.89;100077.38;109417;1273;138594;-60
2022/01/02 08:20:06;;;;;;;4.60;2.00;;;;;;;-2.78;66.97;100072.13;109485;1273;22459;-60
2022/01/02 08:22:34;;;;;;;5.00;1.60;;;;;;;-2.75;66.68;100073.73;109484;1271;22551;-60
2022/01/02 08:25:03;;;;;;;3.20;1.30;;;;;;;-2.74;66.32;100068.30;109331;1274;138158;-61
2022/01/02 08:27:34;;;;;;;1.60;1.30;;;;;;;-2.73;65.75;100076.53;109426;1274;23360;-59
2022/01/02 08:30:03;;;;;;;2.80;1.50;;;;;;;-2.74;65.36;100079.10;109374;1273;139346;-60
2022/01/02 08:32:31;;;;;;;1.60;1.40;;;;;;;-2.72;65.20;100073.20;109440;1274;22413;-60
2022/01/02 08:35:14;;;;;;;1.80;1.40;;;;;;;-2.70;64.07;100068.76;109339;1274;139028;-60
2022/01/02 08:37:43;;;;;;;5.50;1.90;;;;;;;-2.72;63.13;100063.44;109472;1274;22534;-60
2022/01/02 08:40:11;;;;;;;3.30;1.50;;;;;;;-2.75;63.21;100063.41;109406;1274;22470;-60
2022/01/02 08:42:40;;;;;;;3.70;2.10;;;;;;;-2.76;63.39;100056.58;109347;1274;137441;-61
2022/01/02 08:45:11;;;;;;;3.20;1.80;;;;;;;-2.75;63.47;100054.77;109425;1274;22584;-48
2022/01/02 08:47:39;;;;;;;2.10;1.60;;;;;;;-2.73;63.27;100055.06;109203;1274;137965;-60
2022/01/02 08:50:07;;;;;;;3.80;2.00;;;;;;;-2.70;63.71;100055.79;109283;1276;22466;-60
2022/01/02 08:52:35;;;;;;;3.10;1.80;;;;;;;-2.66;63.55;100057.02;109277;1276;22427;-60
2022/01/02 08:55:04;;;;;;;2.20;1.30;;;;;;;-2.66;62.21;100046.42;109158;1276;139561;-60
2022/01/02 08:57:34;;;;;;;2.70;1.30;;;;;;;-2.64;62.37;100047.52;109302;1276;23413;-60
2022/01/02 09:00:03;;;;;;;2.90;1.80;;;;;;;-2.61;61.43;100048.77;109211;1276;139025;-60
2022/01/02 09:02:31;;;;;;;2.40;1.40;;;;;;;-2.59;61.29;100045.03;109353;1274;22480;-61
2022/01/02 09:04:59;;;;;;;5.60;2.50;;;;;;;-2.57;61.89;100039.86;109299;1274;137769;-60
2022/01/02 09:07:28;;;;;;;4.70;2.00;;;;;;;-2.55;62.04;100040.30;109350;1274;22461;-60
2022/01/02 09:09:56;;;;;;;3.40;1.70;;;;;;;-2.52;61.92;100035.02;109385;1274;23568;-60
2022/01/02 09:12:24;;;;;;;3.60;1.80;;;;;;;-2.47;61.63;100035.11;109281;1275;139742;-60
2022/01/02 09:14:52;;;;;;;23.30;11.90;;;;;;;-2.45;61.70;100036.98;109262;1276;22441;-60
2022/01/02 09:17:20;;;;;;;16.30;6.80;;;;;;;-2.40;61.36;100043.92;109269;1274;139088;-61
2022/01/02 09:19:49;;;;;;;15.80;7.80;;;;;;;-2.37;60.39;100043.08;109375;1274;22558;-61
2022/01/02 09:22:17;;;;;;;21.40;8.50;;;;;;;-2.35;59.92;100045.56;109364;1274;23061;-60
2022/01/02 09:24:45;;;;;;;12.40;5.40;;;;;;;-2.33;60.34;100048.34;109238;1274;137657;-61
2022/01/02 09:27:13;;;;;;;35.40;16.90;;;;;;;-2.30;60.56;100057.41;109421;1274;22555;-60
2022/01/02 09:29:40;;;;;;;19.60;10.00;;;;;;;-2.25;61.04;100058.79;109136;1276;137886;-60
2022/01/02 09:32:09;;;;;;;11.30;6.10;;;;;;;-2.20;60.82;100057.95;109380;1275;22541;-60
2022/01/02 09:34:36;;;;;;;13.40;5.10;;;;;;;-2.16;60.01;100062.16;109364;1274;23226;-60
2022/01/02 09:37:05;;;;;;;21.20;10.70;;;;;;;-2.15;59.00;100047.80;109150;1276;137305;-61
2022/01/02 09:39:33;;;;;;;107.70;51.30;;;;;;;-2.15;58.54;100041.16;109409;1274;23214;-60
2022/01/02 09:42:11;;;;;;;41.60;21.10;;;;;;;-2.14;58.56;100049.44;109249;1274;138290;-60
2022/01/02 09:44:39;;;;;;;16.90;9.80;;;;;;;-2.11;58.54;100056.69;109321;1275;22472;-60
2022/01/02 09:47:07;;;;;;;17.30;9.90;;;;;;;-2.10;57.53;100062.20;109349;1274;138612;-60
2022/01/02 09:49:37;;;;;;;28.90;14.60;;;;;;;-2.09;58.22;100055.03;109496;1273;22557;-60
2022/01/02 09:52:06;;;;;;;109.10;59.00;;;;;;;-2.07;57.57;100053.02;109503;1274;22809;-59
2022/01/02 09:54:34;;;;;;;111.10;58.60;;;;;;;-2.05;57.31;100049.27;109425;1274;138181;-59
2022/01/02 09:57:02;;;;;;;55.20;31.50;;;;;;;-2.02;56.99;100047.54;109487;1273;22554;-59
2022/01/02 09:59:31;;;;;;;32.10;16.80;;;;;;;-1.99;56.99;100051.64;109338;1274;138121;-59
2022/01/02 10:02:01;;;;;;;101.70;50.40;;;;;;;-1.94;56.72;100060.90;109477;1274;23542;-60
2022/01/02 10:04:39;;;;;;;30.80;16.20;;;;;;;-1.91;56.22;100053.44;109453;1274;22552;-59
2022/01/02 10:07:31;;;;;;;35.50;16.80;;;;;;;-1.89;56.00;100046.42;109351;1274;137792;-59
2022/01/02 10:10:08;;;;;;;216.30;98.30;;;;;;;-1.88;56.02;100036.14;109522;1272;22525;-60
2022/01/02 10:12:36;;;;;;;151.90;72.50;;;;;;;-1.84;56.26;100038.94;109359;1274;139031;-59
2022/01/02 10:15:11;;;;;;;186.50;95.60;;;;;;;-1.80;55.66;100037.95;109480;1273;22491;-59
2022/01/02 10:18:09;;;;;;;106.30;57.40;;;;;;;-1.79;55.47;100032.31;105005;1274;138808;-60
2022/01/02 10:20:41;;;;;;;38.10;20.70;;;;;;;-1.77;54.54;100027.58;105078;1274;25511;-60
2022/01/02 10:23:12;;;;;;;79.70;40.50;;;;;;;-1.78;54.43;100030.11;109332;1274;138193;-60
2022/01/02 10:25:46;;;;;;;118.60;53.90;;;;;;;-1.77;54.44;100039.49;109483;1274;22428;-60
2022/01/02 10:28:27;;;;;;;233.00;112.00;;;;;;;-1.73;55.11;100042.59;109432;1274;22470;-61
2022/01/02 10:30:56;;;;;;;254.20;133.40;;;;;;;-1.68;54.25;100042.41;109334;1274;138478;-61
2022/01/02 10:33:25;;;;;;;62.00;34.50;;;;;;;-1.65;53.78;100032.08;109468;1274;22559;-61
2022/01/02 10:35:57;;;;;;;34.90;18.50;;;;;;;-1.63;54.24;100026.84;109324;1273;138769;-60
2022/01/02 10:38:25;;;;;;;171.80;78.50;;;;;;;-1.58;53.99;100019.75;109480;1274;22654;-60
2022/01/02 10:40:53;;;;;;;138.70;65.50;;;;;;;-1.54;53.24;100018.70;109382;1274;138135;-60
2022/01/02 10:43:29;;;;;;;65.70;33.40;;;;;;;-1.52;53.54;100014.73;109444;1274;23220;-60
2022/01/02 10:45:58;;;;;;;49.40;26.00;;;;;;;-1.49;53.70;100020.36;109468;1274;22478;-61
2022/01/02 10:48:36;;;;;;;69.30;33.70;;;;;;;-1.47;52.85;100016.91;109374;1274;137976;-60
2022/01/02 10:51:17;;;;;;;33.10;18.00;;;;;;;-1.46;52.56;100014.84;109511;1273;22483;-61
2022/01/02 10:53:59;;;;;;;118.10;62.50;;;;;;;-1.44;51.91;100020.27;109200;1274;138169;-60
2022/01/02 10:56:28;;;;;;;154.50;84.40;;;;;;;-1.42;50.89;100020.07;109523;1272;22428;-60
2022/01/02 10:58:59;;;;;;;296.20;123.60;;;;;;;-1.40;51.02;100016.83;109331;1274;140710;-60
2022/01/02 11:01:27;;;;;;;209.80;102.40;;;;;;;-1.39;50.25;100013.11;109336;1273;274656;-61
2022/01/02 11:05:23;;;;;;;61.70;32.10;;;;;;;-1.34;49.70;100013.09;101752;1310;545177;-59
2022/01/02 11:07:55;;;;;;;73.90;38.20;;;;;;;-1.34;49.56;100013.55;107970;1288;23876;-59
2022/01/02 11:10:23;;;;;;;116.70;52.90;;;;;;;-1.34;49.79;100019.90;108186;1287;22551;-60
2022/01/02 11:12:52;;;;;;;83.70;42.20;;;;;;;-1.33;49.98;100020.00;108088;1286;137162;-60
2022/01/02 11:15:24;;;;;;;183.80;82.20;;;;;;;-1.31;49.25;100017.67;108174;1286;22474;-59
2022/01/02 11:17:52;;;;;;;121.90;56.40;;;;;;;-1.31;48.65;100008.55;107846;1286;137524;-59
2022/01/02 11:20:25;;;;;;;100.30;44.00;;;;;;;-1.32;48.03;100004.06;108391;1286;22447;-59
2022/01/02 11:22:58;;;;;;;111.30;52.20;;;;;;;-1.33;48.36;100006.44;108236;1286;140163;-59
2022/01/02 11:25:29;;;;;;;144.80;60.80;;;;;;;-1.31;48.85;100013.59;108317;1286;22279;-59
2022/01/02 11:28:03;;;;;;;138.30;59.30;;;;;;;-1.31;49.16;100013.69;107955;1287;22534;-59
2022/01/02 11:30:31;;;;;;;332.40;152.40;;;;;;;-1.29;48.80;100007.92;108159;1286;138101;-60